createdAt,value
2023-01-17T00:02:00.951Z,99.90
2023-01-17T00:04:47.080Z,1.00
2023-01-17T00:07:36.010Z,99.90
2023-01-17T00:10:07.651Z,99.90
2023-01-17T00:12:36.493Z,99.90
2023-01-17T00:15:05.564Z,68.80
2023-01-17T00:17:33.998Z,99.90
2023-01-17T00:20:20.314Z,99.90
2023-01-17T00:23:07.257Z,97.30
2023-01-17T00:25:56.528Z,99.90
2023-01-17T00:28:23.998Z,99.90
2023-01-17T00:30:51.027Z,99.90
2023-01-17T00:33:18.688Z,56.40
2023-01-17T00:35:45.737Z,96.20
2023-01-17T00:38:16.048Z,1.00
2023-01-17T00:40:45.054Z,45.70
2023-01-17T00:43:32.218Z,1.00
2023-01-17T00:46:18.000Z,1.00
2023-01-17T00:49:04.149Z,53.70
2023-01-17T00:51:51.191Z,99.90
2023-01-17T00:54:38.494Z,99.90
2023-01-17T00:57:24.682Z,1.00
2023-01-17T01:00:10.809Z,1.00
2023-01-17T01:02:56.582Z,1.00
2023-01-17T01:05:42.908Z,1.00
2023-01-17T01:08:39.611Z,99.90
2023-01-17T01:11:33.177Z,99.90
2023-01-17T01:14:19.780Z,99.90
2023-01-17T01:17:05.916Z,99.90
2023-01-17T01:19:51.792Z,24.10
2023-01-17T01:22:37.796Z,99.90
2023-01-17T01:25:24.442Z,40.40
2023-01-17T01:28:11.029Z,1.00
2023-01-17T01:30:56.558Z,1.00
2023-01-17T01:33:23.535Z,1.00
2023-01-17T01:35:53.737Z,1.00
2023-01-17T01:38:23.766Z,1.00
2023-01-17T01:40:54.230Z,1.00
2023-01-17T01:43:43.419Z,1.00
2023-01-17T01:46:13.829Z,1.00
2023-01-17T01:48:45.309Z,1.00
2023-01-17T01:51:17.423Z,1.00
2023-01-17T01:53:49.071Z,1.00
2023-01-17T01:56:20.087Z,99.90
2023-01-17T01:58:52.462Z,1.00
2023-01-17T02:01:21.119Z,99.90
2023-01-17T02:03:50.367Z,1.00
2023-01-17T02:06:30.020Z,99.90
2023-01-17T02:09:01.249Z,99.90
2023-01-17T02:11:29.630Z,1.00
2023-01-17T02:14:03.684Z,1.00
2023-01-17T02:16:45.361Z,1.00
2023-01-17T02:19:47.522Z,1.00
2023-01-17T02:22:40.809Z,1.00
2023-01-17T02:25:35.747Z,1.00
2023-01-17T02:28:24.214Z,1.00
2023-01-17T02:30:57.399Z,1.00
2023-01-17T02:33:34.256Z,1.00
2023-01-17T02:36:12.203Z,1.00
2023-01-17T02:38:47.990Z,1.00
2023-01-17T02:41:20.427Z,1.00
2023-01-17T02:43:51.330Z,1.00
2023-01-17T02:46:21.043Z,13.60
2023-01-17T02:48:49.895Z,26.10
2023-01-17T02:51:32.597Z,1.00
2023-01-17T02:54:12.644Z,99.90
2023-01-17T02:56:50.090Z,99.90
2023-01-17T02:59:31.782Z,99.90
2023-01-17T03:02:11.183Z,99.90
2023-01-17T03:04:43.980Z,99.90
2023-01-17T03:07:16.771Z,1.00
2023-01-17T03:09:46.509Z,99.90
2023-01-17T03:12:15.147Z,99.90
2023-01-17T03:14:43.315Z,1.00
2023-01-17T03:17:12.956Z,1.00
2023-01-17T03:19:41.418Z,1.00
2023-01-17T03:22:09.622Z,1.00
2023-01-17T03:24:37.770Z,1.00
2023-01-17T03:27:05.978Z,99.90
2023-01-17T03:29:34.075Z,1.00
2023-01-17T03:32:02.183Z,1.00
2023-01-17T03:34:31.670Z,1.00
2023-01-17T03:36:59.792Z,1.00
2023-01-17T03:39:27.838Z,1.00
2023-01-17T03:41:55.912Z,1.00
2023-01-17T03:44:24.074Z,99.90
2023-01-17T03:46:52.107Z,99.90
2023-01-17T03:49:20.165Z,99.90
2023-01-17T03:51:49.780Z,1.00
2023-01-17T03:54:17.903Z,1.00
2023-01-17T03:56:46.052Z,99.90
2023-01-17T03:59:14.192Z,10.00
2023-01-17T04:01:42.410Z,1.00
2023-01-17T04:04:10.553Z,1.00
2023-01-17T04:06:38.808Z,99.90
2023-01-17T04:09:08.439Z,99.90
2023-01-17T04:11:36.562Z,99.90
2023-01-17T04:14:04.626Z,99.90
2023-01-17T04:16:33.761Z,99.90
2023-01-17T04:19:01.960Z,99.90
2023-01-17T04:21:30.165Z,99.90
2023-01-17T04:23:58.558Z,99.90
2023-01-17T04:26:28.247Z,29.70
2023-01-17T04:28:56.507Z,99.90
2023-01-17T04:31:24.672Z,99.90
2023-01-17T04:33:52.935Z,1.00
2023-01-17T04:36:21.166Z,99.90
2023-01-17T04:38:49.379Z,99.90
2023-01-17T04:41:17.494Z,99.90
2023-01-17T04:43:47.000Z,1.00
2023-01-17T04:46:15.155Z,99.90
2023-01-17T04:48:43.290Z,99.90
2023-01-17T04:51:11.444Z,99.90
2023-01-17T04:53:39.558Z,99.90
2023-01-17T04:56:08.329Z,27.80
2023-01-17T04:58:36.462Z,62.40
2023-01-17T05:01:07.296Z,1.00
2023-01-17T05:03:35.997Z,1.00
2023-01-17T05:06:04.633Z,1.00
2023-01-17T05:08:32.770Z,1.00
2023-01-17T05:11:00.847Z,99.90
2023-01-17T05:13:28.976Z,73.40
2023-01-17T05:15:58.364Z,1.00
2023-01-17T05:18:27.930Z,1.00
2023-01-17T05:20:56.117Z,1.00
2023-01-17T05:23:25.370Z,1.00
2023-01-17T05:25:53.521Z,1.00
2023-01-17T05:28:21.677Z,1.00
2023-01-17T05:30:50.010Z,1.00
2023-01-17T05:33:18.243Z,1.00
2023-01-17T05:35:47.822Z,1.00
2023-01-17T05:38:15.939Z,1.00
2023-01-17T05:40:44.024Z,1.00
2023-01-17T05:43:12.075Z,1.00
2023-01-17T05:45:40.330Z,1.00
2023-01-17T05:48:08.444Z,1.00
2023-01-17T05:50:38.338Z,1.00
2023-01-17T05:53:09.479Z,1.00
2023-01-17T05:55:38.923Z,99.90
2023-01-17T05:58:08.758Z,99.90
2023-01-17T06:00:37.774Z,99.90
2023-01-17T06:03:06.170Z,99.90
2023-01-17T06:05:34.560Z,99.90
2023-01-17T06:08:02.731Z,99.90
2023-01-17T06:10:32.784Z,99.90
2023-01-17T06:13:06.464Z,99.90
2023-01-17T06:15:36.279Z,99.90
2023-01-17T06:18:08.285Z,99.90
2023-01-17T06:20:36.660Z,1.00
2023-01-17T06:23:06.275Z,99.90
2023-01-17T06:25:39.316Z,99.90
2023-01-17T06:28:08.012Z,99.90
2023-01-17T06:30:36.643Z,1.00
2023-01-17T06:33:05.156Z,99.90
2023-01-17T06:35:33.665Z,99.90
2023-01-17T06:38:01.957Z,99.90
2023-01-17T06:40:31.209Z,99.90
2023-01-17T06:43:02.546Z,99.90
2023-01-17T06:45:31.350Z,99.90
2023-01-17T06:48:00.620Z,99.90
2023-01-17T06:50:29.041Z,99.90
2023-01-17T06:52:58.355Z,99.90
2023-01-17T06:55:28.835Z,99.90
2023-01-17T06:57:57.410Z,99.90
2023-01-17T07:00:27.584Z,99.90
2023-01-17T07:02:56.347Z,99.90
2023-01-17T07:05:24.476Z,99.90
2023-01-17T07:07:53.670Z,99.90
2023-01-17T07:10:23.653Z,99.90
2023-01-17T07:12:52.456Z,92.10
2023-01-17T07:15:20.649Z,99.90
2023-01-17T07:17:50.191Z,99.90
2023-01-17T07:20:18.615Z,99.90
2023-01-17T07:22:46.882Z,99.90
2023-01-17T07:25:15.165Z,88.20
2023-01-17T07:27:43.401Z,99.90
2023-01-17T07:30:12.802Z,4.10
2023-01-17T07:32:40.961Z,1.00
2023-01-17T07:35:11.138Z,1.00
2023-01-17T07:37:39.367Z,1.00
2023-01-17T07:40:08.536Z,1.00
2023-01-17T07:42:36.641Z,1.00
2023-01-17T07:45:05.354Z,1.00
2023-01-17T07:47:34.081Z,1.00
2023-01-17T07:50:02.884Z,49.20
2023-01-17T07:52:32.572Z,99.90
2023-01-17T07:55:00.647Z,99.90
2023-01-17T07:57:28.754Z,99.90
2023-01-17T07:59:56.832Z,99.90
2023-01-17T08:02:25.308Z,99.90
2023-01-17T08:04:53.498Z,97.30
2023-01-17T08:07:21.707Z,99.90
2023-01-17T08:09:51.270Z,99.90
2023-01-17T08:12:19.462Z,49.60
2023-01-17T08:14:47.632Z,1.00
2023-01-17T08:17:17.321Z,4.60
2023-01-17T08:19:45.846Z,98.80
2023-01-17T08:22:14.132Z,99.90
2023-01-17T08:24:43.178Z,77.90
2023-01-17T08:27:12.575Z,40.10
2023-01-17T08:29:42.862Z,1.00
2023-01-17T08:32:11.045Z,1.00
2023-01-17T08:34:39.182Z,1.00
2023-01-17T08:37:07.333Z,1.00
2023-01-17T08:39:35.549Z,1.00
2023-01-17T08:42:03.765Z,1.00
2023-01-17T08:44:33.578Z,1.00
2023-01-17T08:47:02.559Z,1.00
2023-01-17T08:49:30.666Z,1.00
2023-01-17T08:51:59.003Z,1.00
2023-01-17T08:54:27.208Z,1.00
2023-01-17T08:56:55.771Z,1.00
2023-01-17T08:59:24.132Z,1.00
2023-01-17T09:01:58.289Z,1.00
2023-01-17T09:04:26.685Z,1.00
2023-01-17T09:06:54.823Z,1.00
2023-01-17T09:09:23.110Z,1.00
2023-01-17T09:11:51.197Z,1.00
2023-01-17T09:14:19.488Z,1.00
2023-01-17T09:16:48.633Z,1.00
2023-01-17T09:19:18.292Z,99.90
2023-01-17T09:21:46.420Z,1.00
2023-01-17T09:24:14.691Z,99.90
2023-01-17T09:26:42.764Z,99.90
2023-01-17T09:29:11.794Z,99.90
2023-01-17T09:31:41.626Z,99.90
2023-01-17T09:34:09.696Z,99.90
2023-01-17T09:36:39.185Z,99.90
2023-01-17T09:39:08.179Z,99.90
2023-01-17T09:41:38.344Z,99.90
2023-01-17T09:44:12.331Z,99.90
2023-01-17T09:46:43.897Z,99.90
2023-01-17T09:49:19.395Z,99.90
2023-01-17T09:51:49.026Z,99.90
2023-01-17T09:54:23.385Z,99.90
2023-01-17T09:57:01.763Z,99.90
2023-01-17T09:59:40.818Z,99.90
2023-01-17T10:02:32.520Z,99.90
2023-01-17T10:05:16.472Z,99.90
2023-01-17T10:08:04.433Z,99.90
2023-01-17T10:10:40.946Z,99.90
2023-01-17T10:13:18.255Z,99.90
2023-01-17T10:15:58.592Z,99.90
2023-01-17T10:18:57.397Z,99.90
2023-01-17T10:21:35.108Z,99.90
2023-01-17T10:24:18.381Z,99.90
2023-01-17T10:26:50.005Z,99.90
2023-01-17T10:29:21.272Z,99.90
2023-01-17T10:31:56.854Z,99.90
2023-01-17T10:34:30.455Z,99.90
2023-01-17T10:37:04.543Z,99.90
2023-01-17T10:39:34.959Z,99.90
2023-01-17T10:42:08.325Z,99.90
2023-01-17T10:44:42.351Z,99.90
2023-01-17T10:47:20.557Z,99.90
2023-01-17T10:49:53.734Z,99.90
2023-01-17T10:52:33.206Z,99.90
2023-01-17T10:55:25.468Z,99.90
2023-01-17T10:57:55.249Z,99.90
2023-01-17T11:00:40.307Z,99.90
2023-01-17T11:03:10.852Z,96.40
2023-01-17T11:05:40.795Z,99.90
2023-01-17T11:08:10.727Z,99.90
2023-01-17T11:10:44.612Z,98.10
2023-01-17T11:13:26.180Z,95.60
2023-01-17T11:15:57.909Z,95.60
2023-01-17T11:18:29.364Z,93.90
2023-01-17T11:21:12.180Z,93.90
2023-01-17T11:23:42.589Z,92.70
2023-01-17T11:26:13.950Z,92.50
2023-01-17T11:28:42.610Z,90.60
2023-01-17T11:31:26.221Z,90.40
2023-01-17T11:34:09.591Z,82.70
2023-01-17T11:36:37.785Z,76.40
2023-01-17T11:39:08.292Z,80.50
2023-01-17T11:41:39.519Z,76.70
2023-01-17T11:44:23.391Z,79.80
2023-01-17T11:47:10.190Z,87.80
2023-01-17T11:49:38.663Z,79.60
2023-01-17T11:52:10.414Z,87.00
2023-01-17T11:54:42.587Z,87.40
2023-01-17T11:57:21.925Z,82.40
2023-01-17T11:59:52.571Z,79.40
2023-01-17T12:02:43.307Z,80.80
2023-01-17T12:05:41.147Z,85.30
2023-01-17T12:08:18.543Z,82.90
2023-01-17T12:10:57.096Z,75.50
2023-01-17T12:13:55.945Z,79.50
2023-01-17T12:16:33.223Z,79.00
2023-01-17T12:19:28.422Z,74.90
2023-01-17T12:22:08.840Z,80.40
2023-01-17T12:25:04.093Z,83.40
2023-01-17T12:27:42.572Z,81.10
2023-01-17T12:30:27.848Z,70.90
2023-01-17T12:33:15.699Z,60.70
2023-01-17T12:35:50.824Z,62.30
2023-01-17T12:38:32.515Z,61.80
2023-01-17T12:41:07.260Z,60.80
2023-01-17T12:43:38.623Z,62.30
2023-01-17T12:46:17.029Z,60.80
2023-01-17T12:48:46.254Z,59.00
2023-01-17T12:51:18.130Z,62.20
2023-01-17T12:53:56.468Z,67.00
2023-01-17T12:56:30.204Z,63.30
2023-01-17T12:59:06.494Z,71.50
2023-01-17T13:01:39.932Z,77.70
2023-01-17T13:04:19.671Z,75.80
2023-01-17T13:06:59.999Z,83.00
2023-01-17T13:09:32.718Z,82.00
2023-01-17T13:12:06.000Z,87.20
2023-01-17T13:14:34.394Z,85.50
2023-01-17T13:17:11.451Z,80.10
2023-01-17T13:19:48.873Z,74.20
2023-01-17T13:22:21.809Z,75.30
2023-01-17T13:24:56.511Z,67.50
2023-01-17T13:27:48.628Z,68.90
2023-01-17T13:30:31.809Z,70.90
2023-01-17T13:33:21.258Z,65.70
2023-01-17T13:36:00.692Z,68.30
2023-01-17T13:39:01.610Z,66.70
2023-01-17T13:41:43.556Z,58.10
2023-01-17T13:44:24.699Z,57.80
2023-01-17T13:47:02.219Z,63.60
2023-01-17T13:49:36.971Z,58.00
2023-01-17T13:52:12.234Z,59.00
2023-01-17T13:54:48.531Z,58.20
2023-01-17T13:57:46.817Z,57.50
2023-01-17T14:00:59.680Z,58.40
2023-01-17T14:04:06.457Z,58.20
2023-01-17T14:06:45.410Z,54.50
2023-01-17T14:09:19.698Z,53.80
2023-01-17T14:12:04.440Z,56.60
2023-01-17T14:14:47.864Z,51.70
2023-01-17T14:17:59.651Z,53.30
2023-01-17T14:20:52.182Z,58.00
2023-01-17T14:23:48.961Z,57.10
2023-01-17T14:26:34.186Z,57.90
2023-01-17T14:29:35.562Z,61.10
2023-01-17T14:32:06.954Z,64.30
2023-01-17T14:34:35.809Z,59.80
2023-01-17T14:37:19.499Z,57.00
2023-01-17T14:39:51.009Z,59.00
2023-01-17T14:42:21.817Z,63.50
2023-01-17T14:44:52.985Z,62.00
2023-01-17T14:47:22.552Z,62.50
2023-01-17T14:49:58.033Z,62.30
2023-01-17T14:52:26.221Z,66.70
2023-01-17T14:54:55.803Z,71.50
2023-01-17T14:57:29.359Z,76.90
2023-01-17T15:00:18.990Z,73.90
2023-01-17T15:02:50.679Z,77.00
2023-01-17T15:05:21.770Z,81.00
2023-01-17T15:07:53.135Z,79.20
2023-01-17T15:10:26.279Z,72.20
2023-01-17T15:12:55.959Z,71.00
2023-01-17T15:15:33.010Z,70.50
2023-01-17T15:18:21.360Z,66.80
2023-01-17T15:20:54.555Z,66.50
2023-01-17T15:23:23.972Z,67.60
2023-01-17T15:25:55.249Z,67.30
2023-01-17T15:28:23.860Z,57.50
2023-01-17T15:31:06.326Z,57.60
2023-01-17T15:33:36.422Z,57.20
2023-01-17T15:36:07.450Z,55.50
2023-01-17T15:38:39.482Z,52.20
2023-01-17T15:41:15.523Z,48.00
2023-01-17T15:43:46.285Z,49.50
2023-01-17T15:46:28.533Z,54.50
2023-01-17T15:49:08.194Z,56.40
2023-01-17T15:51:41.558Z,56.70
2023-01-17T15:54:32.464Z,58.90
2023-01-17T15:57:07.770Z,61.60
2023-01-17T15:59:45.415Z,58.60
2023-01-17T16:02:33.223Z,61.70
2023-01-17T16:05:02.186Z,61.20
2023-01-17T16:07:35.051Z,59.20
2023-01-17T16:10:07.801Z,55.70
2023-01-17T16:12:37.355Z,54.30
2023-01-17T16:15:12.684Z,54.90
2023-01-17T16:17:42.864Z,52.40
2023-01-17T16:20:16.154Z,49.90
2023-01-17T16:22:44.903Z,45.10
2023-01-17T16:25:15.709Z,46.20
2023-01-17T16:27:45.348Z,41.40
2023-01-17T16:30:16.303Z,41.00
2023-01-17T16:32:48.520Z,37.20
2023-01-17T16:35:20.810Z,37.90
2023-01-17T16:37:51.050Z,38.30
2023-01-17T16:40:19.844Z,42.10
2023-01-17T16:42:49.601Z,44.00
2023-01-17T16:45:18.936Z,42.20
2023-01-17T16:47:48.624Z,37.90
2023-01-17T16:50:19.006Z,30.90
2023-01-17T16:52:47.113Z,30.00
2023-01-17T16:55:17.064Z,31.30
2023-01-17T16:57:45.422Z,33.10
2023-01-17T17:00:16.308Z,30.30
2023-01-17T17:02:44.689Z,31.80
2023-01-17T17:05:13.027Z,33.40
2023-01-17T17:07:44.187Z,40.30
2023-01-17T17:10:15.079Z,46.90
2023-01-17T17:12:43.614Z,50.80
2023-01-17T17:15:14.317Z,54.60
2023-01-17T17:17:44.138Z,79.60
2023-01-17T17:20:15.160Z,75.70
2023-01-17T17:22:45.169Z,89.80
2023-01-17T17:25:13.518Z,99.70
2023-01-17T17:27:41.758Z,99.90
2023-01-17T17:30:11.126Z,99.90
2023-01-17T17:32:40.661Z,99.90
2023-01-17T17:35:09.462Z,99.90
2023-01-17T17:37:37.619Z,99.90
2023-01-17T17:40:06.668Z,99.90
2023-01-17T17:42:34.858Z,99.90
2023-01-17T17:45:03.004Z,99.90
2023-01-17T17:47:31.370Z,99.90
2023-01-17T17:50:00.917Z,99.90
2023-01-17T17:52:29.092Z,99.90
2023-01-17T17:54:57.217Z,99.90
2023-01-17T17:57:25.272Z,99.90
2023-01-17T17:59:56.043Z,99.90
2023-01-17T18:02:24.267Z,1.00
2023-01-17T18:04:52.447Z,1.00
2023-01-17T18:07:22.251Z,1.00
2023-01-17T18:09:50.486Z,1.00
2023-01-17T18:12:18.652Z,1.00
2023-01-17T18:14:46.812Z,1.00
2023-01-17T18:17:15.225Z,1.00
2023-01-17T18:19:46.157Z,1.00
2023-01-17T18:22:14.369Z,1.00
2023-01-17T18:24:43.922Z,1.00
2023-01-17T18:27:12.074Z,2.70
2023-01-17T18:29:40.657Z,94.60
2023-01-17T18:32:08.927Z,83.00
2023-01-17T18:34:41.439Z,99.90
2023-01-17T18:37:09.984Z,99.90
2023-01-17T18:39:38.297Z,99.90
2023-01-17T18:42:08.048Z,99.90
2023-01-17T18:44:36.506Z,99.90
2023-01-17T18:47:05.640Z,99.90
2023-01-17T18:49:35.591Z,99.90
2023-01-17T18:52:03.765Z,99.90
2023-01-17T18:54:31.990Z,99.90
2023-01-17T18:57:00.190Z,99.90
2023-01-17T18:59:29.745Z,99.90
2023-01-17T19:01:58.822Z,99.90
2023-01-17T19:04:28.463Z,99.90
2023-01-17T19:06:56.705Z,99.90
2023-01-17T19:09:24.928Z,99.90
2023-01-17T19:11:53.170Z,99.90
2023-01-17T19:14:21.273Z,1.00
2023-01-17T19:16:50.798Z,1.00
2023-01-17T19:19:18.940Z,1.00
2023-01-17T19:21:47.194Z,1.00
2023-01-17T19:24:15.339Z,99.90
2023-01-17T19:26:44.014Z,99.90
2023-01-17T19:29:12.614Z,99.90
2023-01-17T19:31:43.357Z,1.00
2023-01-17T19:34:16.063Z,1.00
2023-01-17T19:36:44.358Z,1.00
2023-01-17T19:39:12.715Z,1.00
2023-01-17T19:41:44.764Z,1.00
2023-01-17T19:44:14.961Z,1.00
2023-01-17T19:46:43.887Z,63.30
2023-01-17T19:49:13.463Z,1.00
2023-01-17T19:51:41.652Z,1.00
2023-01-17T19:54:09.907Z,1.00
2023-01-17T19:56:38.289Z,1.00
2023-01-17T19:59:07.206Z,1.00
2023-01-17T20:01:36.240Z,1.00
2023-01-17T20:04:05.396Z,1.00
2023-01-17T20:06:36.647Z,96.80
2023-01-17T20:09:05.867Z,99.90
2023-01-17T20:11:34.228Z,99.90
2023-01-17T20:14:02.758Z,65.90
2023-01-17T20:16:32.346Z,1.00
2023-01-17T20:19:02.794Z,1.00
2023-01-17T20:21:32.837Z,99.90
2023-01-17T20:24:04.348Z,99.90
2023-01-17T20:26:35.876Z,58.90
2023-01-17T20:29:10.599Z,55.80
2023-01-17T20:31:39.985Z,99.90
2023-01-17T20:34:10.749Z,99.90
2023-01-17T20:36:39.690Z,99.90
2023-01-17T20:39:11.067Z,99.90
2023-01-17T20:41:40.575Z,99.90
2023-01-17T20:44:12.803Z,99.90
2023-01-17T20:46:42.087Z,99.90
2023-01-17T20:49:14.766Z,21.80
2023-01-17T20:51:45.688Z,99.90
2023-01-17T20:54:18.014Z,99.90
2023-01-17T20:56:47.842Z,99.90
2023-01-17T20:59:18.378Z,99.90
2023-01-17T21:01:46.832Z,1.00
2023-01-17T21:04:15.667Z,99.90
2023-01-17T21:06:45.074Z,99.90
2023-01-17T21:09:17.288Z,99.90
2023-01-17T21:11:45.761Z,9.70
2023-01-17T21:14:14.001Z,99.90
2023-01-17T21:16:42.410Z,99.90
2023-01-17T21:19:12.085Z,99.90
2023-01-17T21:21:40.834Z,99.90
2023-01-17T21:24:09.004Z,99.90
2023-01-17T21:26:39.975Z,99.90
2023-01-17T21:29:08.282Z,99.90
2023-01-17T21:31:38.651Z,99.90
2023-01-17T21:34:08.271Z,99.90
2023-01-17T21:36:37.818Z,99.90
2023-01-17T21:39:08.389Z,99.90
2023-01-17T21:41:40.142Z,99.90
2023-01-17T21:44:12.562Z,99.90
2023-01-17T21:46:42.031Z,99.90
2023-01-17T21:49:12.080Z,99.90
2023-01-17T21:51:58.096Z,99.90
2023-01-17T21:54:41.596Z,99.90
2023-01-17T21:57:29.314Z,99.90
2023-01-17T21:59:57.496Z,99.90
2023-01-17T22:02:25.744Z,99.90
2023-01-17T22:04:56.285Z,99.90
2023-01-17T22:07:26.961Z,99.90
2023-01-17T22:09:56.765Z,99.90
2023-01-17T22:12:26.400Z,99.90
2023-01-17T22:14:54.969Z,99.90
2023-01-17T22:17:23.314Z,1.00
2023-01-17T22:19:51.556Z,99.90
2023-01-17T22:22:19.652Z,1.00
2023-01-17T22:24:47.785Z,1.00
2023-01-17T22:27:16.014Z,99.90
2023-01-17T22:29:45.885Z,99.90
2023-01-17T22:32:14.028Z,1.00
2023-01-17T22:34:42.227Z,1.00
2023-01-17T22:37:11.337Z,13.20
2023-01-17T22:39:39.847Z,99.90
2023-01-17T22:42:08.407Z,1.00
2023-01-17T22:44:36.557Z,99.90
2023-01-17T22:47:06.025Z,1.00
2023-01-17T22:49:34.122Z,1.00
2023-01-17T22:52:02.307Z,1.00
2023-01-17T22:54:30.509Z,1.00
2023-01-17T22:56:59.881Z,1.00
2023-01-17T22:59:28.102Z,59.20
2023-01-17T23:01:56.297Z,1.00
2023-01-17T23:04:25.943Z,99.90
2023-01-17T23:06:54.038Z,51.10
2023-01-17T23:09:22.696Z,24.70
2023-01-17T23:11:52.771Z,1.00
2023-01-17T23:14:23.157Z,1.00
2023-01-17T23:17:10.381Z,1.00
2023-01-17T23:19:42.060Z,1.00
2023-01-17T23:22:20.145Z,1.00
2023-01-17T23:24:51.625Z,1.00
2023-01-17T23:27:41.201Z,1.00
2023-01-17T23:30:12.538Z,1.00
2023-01-17T23:32:44.028Z,20.70
2023-01-17T23:35:13.490Z,87.10
2023-01-17T23:37:59.162Z,1.00
2023-01-17T23:40:27.318Z,1.00
2023-01-17T23:43:12.873Z,1.00
2023-01-17T23:45:41.125Z,1.00
2023-01-17T23:48:10.657Z,1.00
2023-01-17T23:50:42.891Z,1.00
2023-01-17T23:53:12.114Z,1.00
2023-01-17T23:55:41.714Z,1.00
2023-01-17T23:58:12.544Z,99.90
